Flight Track Log - Related Links

Times and Time Zones

All times are in EDT time to prevent confusion due to time zone crossing. See the TGW246 flight status page for this flight to view local times or setup timezone preferences in your user account.

Time Position Orientation Groundspeed Altitude Reporting Facility
EDT Latitude Longitude Course Direction KTS MPH feet Rate Location/Type
Wed 03:27:25 AM -33.9350 151.1780 191° South 2 2  Level FlightAware ADS-B
Wed 03:29:07 AM -33.9360 151.1780 180° South 3 3 109 Level FlightAware ADS-B
Wed 03:31:00 AM -33.7980 151.3817 51° Northeast  Level FlightAware Approximate
Wed 03:32:00 AM -33.7246 151.4897 51° Northeast  Level FlightAware Approximate
Wed 03:33:00 AM -33.6511 151.5974 51° Northeast  Level FlightAware Approximate
Wed 03:34:00 AM -33.5771 151.6987 15° North  Level FlightAware Approximate
Wed 03:34:57 AM -33.9500 151.1800 15° North 23 26  Level FlightAware ADS-B
Wed 03:35:00 AM -33.4652 151.7351 15° North  Level FlightAware Approximate
Wed 03:35:09 AM -33.9510 151.1810 140° Southeast 14 16  Level FlightAware ADS-B
Wed 03:35:37 AM -33.9510 151.1840 90° East 18 21 216 Level FlightAware ADS-B
Wed 03:36:02 AM -33.9510 151.1850 90° East 13 15 229 Level FlightAware ADS-B
Wed 03:36:32 AM -33.9530 151.1870 140° Southeast 19 22 243 Level FlightAware ADS-B
Wed 03:37:02 AM -33.9560 151.1880 165° South 24 28 262 Level FlightAware ADS-B
Wed 03:37:27 AM -33.9590 151.1890 165° South 28 32 283 Level FlightAware ADS-B
Wed 03:37:52 AM -33.9620 151.1900 165° South 26 30 304 Level FlightAware ADS-B
Wed 03:38:22 AM -33.9650 151.1900 180° South 23 26 329 Level FlightAware ADS-B
Wed 03:39:02 AM -33.9690 151.1910 168° South 21 24 364 Level FlightAware ADS-B
Wed 03:39:22 AM -33.9710 151.1910 180° South 5 6 425 Level FlightAware ADS-B
Wed 03:39:42 AM -33.9710 151.1920 90° East 9 10 464 Level FlightAware ADS-B
Wed 03:40:12 AM -33.9710 151.1930 90° East 2 2 510 Level FlightAware ADS-B
Wed 03:42:00 AM -33.7742 151.2765 50° Northeast  Level Estimated
Wed 03:42:02 AM -33.9700 151.1940 50° Northeast 15 17  Level FlightAware ADS-B
Wed 03:42:32 AM -33.9570 151.1900 346° North 147 169 1,700 Level FlightAware ADS-B
Wed 03:43:02 AM -33.9352 151.1880 346° North 148 170 1,700 2,930 Climbing Aus ATC (RADAR)
Wed 03:43:15 AM -33.9280 151.1920 346° North 145 167 2,100 1,737 Climbing FlightAware ADS-B
Wed 03:43:40 AM -33.9130 151.2030 31° Northeast 156 180 2,800 1,418 Climbing FlightAware ADS-B
Wed 03:44:10 AM -33.8950 151.2210 40° Northeast 188 216 3,400 1,200 Climbing FlightAware ADS-B
Wed 03:44:35 AM -33.8750 151.2380 35° Northeast 233 268 3,900 1,309 Climbing FlightAware ADS-B
Wed 03:45:05 AM -33.8460 151.2630 36° Northeast 270 311 4,600 982 Climbing FlightAware ADS-B
Wed 03:45:30 AM -33.8280 151.2870 48° Northeast 271 312 4,800 293 Climbing FlightAware ADS-B
Wed 03:45:46 AM -33.8210 151.3090 69° East 273 314 4,800 766 Level FlightAware ADS-B
Wed 03:46:17 AM -33.8061 151.3628 69° East 272 313 5,400 923 Climbing Aus ATC (RADAR)
Wed 03:46:25 AM -33.8040 151.3660 69° East 282 325 5,400 2,625 Level FlightAware ADS-B
Wed 03:46:33 AM -33.7920 151.3800 44° Northeast 282 325 6,100 4,000 Climbing FlightAware ADS-B
Wed 03:46:49 AM -33.7770 151.3880 24° Northeast 276 318 7,000 3,220 Climbing FlightAware ADS-B
Wed 03:47:14 AM -33.7520 151.3980 18° North 273 314 8,300 3,828 Climbing FlightAware ADS-B
Wed 03:47:47 AM -33.7023 151.4183 18° North 282 325 10,700 3,000 Climbing Aus ATC (RADAR)
Wed 03:48:00 AM -33.6880 151.4240 18° North 304 350 10,600 1,358 Descending FlightAware ADS-B
Wed 03:48:40 AM -33.6310 151.4480 19° North 337 388 11,900 1,482 Climbing FlightAware ADS-B
Wed 03:49:25 AM -33.5580 151.4780 19° North 387 445 12,700 1,624 Climbing FlightAware ADS-B
Wed 03:50:05 AM -33.4870 151.5070 19° North 398 458 14,200 2,345 Climbing FlightAware ADS-B
Wed 03:50:52 AM -33.4020 151.5417 19° North 411 473 16,100 2,038 Climbing Aus ATC (RADAR)
Wed 03:50:58 AM -33.3930 151.5450 19° North 408 470 16,000 2,069 Descending FlightAware ADS-B
Wed 03:51:50 AM -33.3040 151.5820 19° North 410 472 18,100 2,165 Climbing FlightAware ADS-B
Wed 03:52:35 AM -33.2110 151.6190 18° North 428 493 19,500 1,875 Climbing FlightAware ADS-B
Wed 03:53:10 AM -33.1450 151.6460 19° North 444 511 20,600 1,800 Climbing FlightAware ADS-B
Wed 03:53:55 AM -33.0540 151.6830 19° North 446 513 21,900 1,915 Climbing FlightAware ADS-B
Wed 03:53:57 AM -33.0512 151.6845 19° North 448 516 22,100 1,429 Climbing Aus ATC (RADAR)
Wed 03:54:37 AM -32.9703 151.7168 19° North 460 529 22,900 977 Climbing Aus ATC (RADAR)
Wed 03:54:40 AM -32.9630 151.7200 19° North 460 529 22,800 1,116 Descending FlightAware ADS-B
Wed 03:55:20 AM -32.8800 151.7540 19° North 477 549 23,700 1,482 Climbing FlightAware ADS-B
Wed 03:56:05 AM -32.7860 151.7920 19° North 472 543 24,900 1,395 Climbing FlightAware ADS-B
Wed 03:56:46 AM -32.7000 151.8260 18° North 480 552 25,700 1,425 Climbing FlightAware ADS-B
Wed 03:57:25 AM -32.6150 151.8600 18° North 491 565 26,800 1,950 Climbing FlightAware ADS-B
Wed 03:57:26 AM -32.6119 151.8613 18° North 487 560 27,000 1,600 Climbing Aus ATC (RADAR)
Wed 03:58:10 AM -32.5260 151.8960 19° North 489 563 28,000 1,214 Climbing FlightAware ADS-B
Wed 03:58:50 AM -32.4320 151.9340 19° North 490 564 28,700 1,906 Climbing FlightAware ADS-B
Wed 03:59:35 AM -32.3390 151.9710 19° North 477 549 30,700 1,895 Climbing FlightAware ADS-B
Wed 04:00:25 AM -32.2320 152.0130 19° North 476 548 31,700 1,412 Climbing FlightAware ADS-B
Wed 04:00:26 AM -32.2245 152.0155 19° North 476 548 31,900 1,950 Climbing Aus ATC (RADAR)
Wed 04:01:05 AM -32.1450 152.0480 19° North 475 547 33,000 1,071 Climbing FlightAware ADS-B
Wed 04:01:50 AM -32.0510 152.0850 18° North 479 551 33,400 789 Climbing FlightAware ADS-B
Wed 04:02:21 AM -31.9843 152.1115 18° North 485 558 34,000 923 Climbing Aus ATC (RADAR)
Wed 04:02:29 AM -31.9660 152.1180 18° North 491 565 34,000 612 Level FlightAware ADS-B
Wed 04:03:10 AM -31.8780 152.1530 18° North 490 564 34,500 1,174 Climbing FlightAware ADS-B
Wed 04:03:15 AM -31.8623 152.1591 18° North 490 564 34,900 1,636 Climbing Aus ATC (RADAR)
Wed 04:03:54 AM -31.7890 152.1880 18° North 487 560 35,700 1,259 Climbing FlightAware ADS-B
Wed 04:04:36 AM -31.6941 152.2255 18° North 483 556 36,600 738 Climbing Aus ATC (RADAR)
Wed 04:04:59 AM -31.6480 152.2430 18° North 491 565 36,500 369 Descending FlightAware ADS-B
Wed 04:05:41 AM -31.5550 152.2800 19° North 495 570 37,000 585 Climbing FlightAware ADS-B
Wed 04:06:21 AM -31.4669 152.3141 19° North 489 563 37,300  Climbing Aus ATC (RADAR)
Wed 04:06:23 AM -31.4640 152.3150 19° North 493 567 37,000 -419 Descending FlightAware ADS-B
Wed 04:07:04 AM -31.3760 152.3500 19° North 494 568 37,000  Level FlightAware ADS-B
Wed 04:07:45 AM -31.2900 152.3830 19° North 498 573 37,000 429 Level FlightAware ADS-B
Wed 04:07:46 AM -31.2827 152.3862 19° North 491 565 37,300 450 Climbing Aus ATC (RADAR)
Wed 04:08:25 AM -31.1916 152.4213 19° North 499 574 37,300 -419 Level Aus ATC (RADAR)
Wed 04:08:29 AM -31.1890 152.4230 19° North 502 578 37,000  Descending FlightAware ADS-B
Wed 04:09:01 AM -31.1164 152.4503 19° North 499 574 37,300 143 Climbing Aus ATC (RADAR)
Wed 04:09:11 AM -31.1000 152.4570 19° North 504 580 37,100 -375 Descending FlightAware ADS-B
Wed 04:09:49 AM -31.0180 152.4890 18° North 503 579 37,000 171 Descending FlightAware ADS-B
Wed 04:10:21 AM -30.9400 152.5190 18° North 496 571 37,300  Climbing Aus ATC (RADAR)
Wed 04:11:13 AM -30.8370 152.5580 18° North 510 587 37,000 -162 Descending FlightAware ADS-B
Wed 04:12:12 AM -30.6870 152.6250 18° North 519 597 37,000 290 Level FlightAware ADS-B
Wed 04:12:15 AM -30.6786 152.6290 18° North 519 597 37,300  Climbing Aus ATC (RADAR)
Wed 04:13:07 AM -30.5650 152.6820 22° Northeast 518 596 37,000  Descending FlightAware ADS-B
Wed 04:13:51 AM -30.4686 152.7252 22° Northeast 514 592 37,300  Climbing Aus ATC (RADAR)
Wed 04:13:52 AM -30.4650 152.7280 22° Northeast 520 598 37,000  Descending FlightAware ADS-B
Wed 04:14:26 AM -30.3902 152.7614 22° Northeast 515 593 37,300  Climbing Aus ATC (RADAR)
Wed 04:14:34 AM -30.3730 152.7700 22° Northeast 521 600 37,000 -1,435 Descending FlightAware ADS-B
Wed 04:15:12 AM -30.2830 152.8110 22° Northeast 512 589 36,200 -714 Descending FlightAware ADS-B
Wed 04:15:16 AM -30.2780 152.8118 22° Northeast 512 589 36,500 -1,200 Climbing Aus ATC (RADAR)
Wed 04:15:57 AM -30.1880 152.8550 22° Northeast 488 562 35,300 -1,704 Descending FlightAware ADS-B
Wed 04:16:37 AM -30.1090 152.8920 22° Northeast 477 549 34,200 -1,694 Descending FlightAware ADS-B
Wed 04:17:22 AM -30.0160 152.9340 21° North 466 536 32,900 -1,558 Descending FlightAware ADS-B
Wed 04:17:54 AM -29.9477 152.9648 21° North 464 534 32,200 -1,800 Descending Aus ATC (RADAR)
Wed 04:18:02 AM -29.9330 152.9720 21° North 458 527 31,700 -1,814 Descending FlightAware ADS-B
Wed 04:18:37 AM -29.8680 153.0020 22° Northeast 445 512 30,900 -1,600 Descending FlightAware ADS-B
Wed 04:19:17 AM -29.7900 153.0370 21° North 436 502 29,700 -1,479 Descending FlightAware ADS-B
Wed 04:19:50 AM -29.7321 153.0646 21° North 424 488 29,100 -1,733 Descending Aus ATC (RADAR)
Wed 04:20:02 AM -29.7060 153.0750 21° North 426 490 28,400 -2,077 Descending FlightAware ADS-B
Wed 04:20:42 AM -29.6330 153.1080 21° North 418 481 27,300 -1,765 Descending FlightAware ADS-B
Wed 04:21:27 AM -29.5540 153.1440 22° Northeast 412 474 25,900 -1,553 Descending FlightAware ADS-B
Wed 04:22:07 AM -29.4830 153.1760 21° North 400 460 25,100 -1,341 Descending FlightAware ADS-B
Wed 04:22:52 AM -29.4140 153.2070 21° North 386 444 24,000 -1,325 Descending FlightAware ADS-B
Wed 04:23:24 AM -29.3527 153.2342 21° North 384 442 23,400 -1,500 Descending Aus ATC (RADAR)
Wed 04:23:32 AM -29.3400 153.2400 21° North 377 434 23,000 -2,459 Descending FlightAware ADS-B
Wed 04:24:25 AM -29.2560 153.2780 22° Northeast 380 437 20,900 -1,909 Descending FlightAware ADS-B
Wed 04:25:00 AM -29.1986 153.3052 22° Northeast 379 436 20,200 -900 Descending Aus ATC (RADAR)
Wed 04:25:25 AM -29.1630 153.3200 22° Northeast 384 442 20,000 -1,130 Descending FlightAware ADS-B
Wed 04:26:09 AM -29.0930 153.3510 21° North 375 432 18,900 -1,976 Descending FlightAware ADS-B
Wed 04:26:47 AM -29.0240 153.3820 21° North 361 415 17,300 -1,808 Descending FlightAware ADS-B
Wed 04:27:22 AM -28.9680 153.4070 21° North 355 409 16,700 -963 Descending FlightAware ADS-B
Wed 04:28:08 AM -28.9010 153.4370 21° North 350 403 16,000 -918 Descending FlightAware ADS-B
Wed 04:28:47 AM -28.8410 153.4640 22° Northeast 345 397 15,400 -1,000 Descending FlightAware ADS-B
Wed 04:29:32 AM -28.7740 153.4940 21° North 342 394 14,600 -1,271 Descending FlightAware ADS-B
Wed 04:30:12 AM -28.7170 153.5190 21° North 337 388 13,600 -1,500 Descending FlightAware ADS-B
Wed 04:30:52 AM -28.6560 153.5460 21° North 333 383 12,600 -1,500 Descending FlightAware ADS-B
Wed 04:31:28 AM -28.6039 153.5695 21° North 331 381 11,700 -1,950 Descending Aus ATC (RADAR)
Wed 04:31:32 AM -28.6000 153.5710 21° North 328 377 11,300 -2,327 Descending FlightAware ADS-B
Wed 04:32:17 AM -28.5390 153.5980 21° North 325 374 9,800 -1,875 Descending FlightAware ADS-B
Wed 04:32:52 AM -28.4860 153.6100 11° North 316 364 8,800 -1,800 Descending FlightAware ADS-B
Wed 04:33:17 AM -28.4510 153.6160 North 314 361 8,000 -1,855 Descending FlightAware ADS-B
Wed 04:33:47 AM -28.4070 153.6220 North 311 358 7,100 -1,692 Descending FlightAware ADS-B
Wed 04:33:56 AM -28.3980 153.6240 11° North 309 356 6,900 -1,467 Descending FlightAware ADS-B
Wed 04:34:32 AM -28.3430 153.6320 North 297 342 6,000 -1,083 Descending FlightAware ADS-B
Wed 04:35:08 AM -28.3040 153.6380 North 279 321 5,600 -845 Descending FlightAware ADS-B
Wed 04:35:43 AM -28.2530 153.6460 North 259 298 5,000 -947 Descending FlightAware ADS-B
Wed 04:36:05 AM -28.2280 153.6410 350° North 261 300 4,700 -735 Descending FlightAware ADS-B
Wed 04:36:32 AM -28.1940 153.6320 347° North 263 303 4,400 -682 Descending FlightAware ADS-B
Wed 04:36:49 AM -28.1740 153.6270 348° North 262 302 4,200 -667 Descending FlightAware ADS-B
Wed 04:37:17 AM -28.1390 153.6180 347° North 261 300 3,900 -667 Descending FlightAware ADS-B
Wed 04:37:43 AM -28.1090 153.6100 347° North 246 283 3,600 -517 Descending FlightAware ADS-B
Wed 04:38:15 AM -28.0770 153.6030 349° North 229 264 3,400 -517 Descending FlightAware ADS-B
Wed 04:38:41 AM -28.0500 153.5960 347° North 215 247 3,100 -692 Descending FlightAware ADS-B
Wed 04:39:07 AM -28.0240 153.5880 345° North 202 232 2,800 -714 Descending FlightAware ADS-B
Wed 04:39:23 AM -28.0140 153.5760 313° West 206 237 2,600 -571 Descending FlightAware ADS-B
Wed 04:39:49 AM -28.0060 153.5490 289° West 199 229 2,400 -414 Descending FlightAware ADS-B
Wed 04:40:21 AM -28.0020 153.5170 278° West 197 227 2,200 -226 Descending FlightAware ADS-B
Wed 04:40:42 AM -28.0020 153.4950 270° West 199 229 2,200 -277 Level FlightAware ADS-B
Wed 04:41:26 AM -28.0180 153.4570 244° Southwest 189 217 1,900 -316 Descending FlightAware ADS-B
Wed 04:41:58 AM -28.0420 153.4590 176° South 169 194 1,800 -103 Descending FlightAware ADS-B
Wed 04:42:24 AM -28.0600 153.4650 164° South 170 196 1,800  Level FlightAware ADS-B
Wed 04:42:50 AM -28.0770 153.4700 164° South 170 196 1,800 -545 Level FlightAware ADS-B
Wed 04:42:57 AM -28.0881 153.4744 164° South 159 183 1,500 -1,050 Descending Aus ATC (RADAR)
Wed 04:43:30 AM -28.1060 153.4810 164° South 153 176 1,100 -857 Descending FlightAware ADS-B
Wed 04:43:32 AM -28.1093 153.4830 164° South 139 160 1,000 -692 Descending Aus ATC (RADAR)
Wed 04:44:22 AM -28.1407 153.4900 164° South 138 159 500 -600 Descending Aus ATC (RADAR)

Login

Don't have an account? Register now (free) for customized features, flight alerts, and more!